sensor_id;sensor_type;location;lat;lon;timestamp;temperature;humidity
25963;DHT22;13760;52.588;13.406;2023-03-25T00:00:48;9.10;99.90
25963;DHT22;13760;52.588;13.406;2023-03-25T00:03:18;9.10;99.90
25963;DHT22;13760;52.588;13.406;2023-03-25T00:05:43;9.00;99.90
25963;DHT22;13760;52.588;13.406;2023-03-25T00:08:09;9.00;99.90
25963;DHT22;13760;52.588;13.406;2023-03-25T00:10:35;9.00;99.90
25963;DHT22;13760;52.588;13.406;2023-03-25T00:13:00;9.00;99.90
25963;DHT22;13760;52.588;13.406;2023-03-25T00:15:29;9.00;99.90
25963;DHT22;13760;52.588;13.406;2023-03-25T00:17:59;9.00;99.90
25963;DHT22;13760;52.588;13.406;2023-03-25T00:20:24;8.90;99.90
25963;DHT22;13760;52.588;13.406;2023-03-25T00:22:52;8.90;99.90
25963;DHT22;13760;52.588;13.406;2023-03-25T00:25:17;8.90;99.90
25963;DHT22;13760;52.588;13.406;2023-03-25T00:27:45;8.90;99.90
25963;DHT22;13760;52.588;13.406;2023-03-25T00:30:13;8.80;99.90
25963;DHT22;13760;52.588;13.406;2023-03-25T00:32:39;8.80;99.90
25963;DHT22;13760;52.588;13.406;2023-03-25T00:35:05;8.80;99.90
25963;DHT22;13760;52.588;13.406;2023-03-25T00:37:32;8.80;99.90
25963;DHT22;13760;52.588;13.406;2023-03-25T00:39:58;8.80;99.90
25963;DHT22;13760;52.588;13.406;2023-03-25T00:42:23;8.80;99.90
25963;DHT22;13760;52.588;13.406;2023-03-25T00:44:54;8.80;99.90
25963;DHT22;13760;52.588;13.406;2023-03-25T00:47:19;8.70;99.90
25963;DHT22;13760;52.588;13.406;2023-03-25T00:49:47;8.70;99.90
25963;DHT22;13760;52.588;13.406;2023-03-25T00:52:13;8.70;99.90
25963;DHT22;13760;52.588;13.406;2023-03-25T00:54:42;8.70;99.90
25963;DHT22;13760;52.588;13.406;2023-03-25T00:57:08;8.70;99.90
25963;DHT22;13760;52.588;13.406;2023-03-25T00:59:33;8.70;99.90
25963;DHT22;13760;52.588;13.406;2023-03-25T01:01:59;8.70;99.90
25963;DHT22;13760;52.588;13.406;2023-03-25T01:04:27;8.70;99.90
25963;DHT22;13760;52.588;13.406;2023-03-25T01:06:54;8.70;99.90
25963;DHT22;13760;52.588;13.406;2023-03-25T01:09:20;8.70;99.90
25963;DHT22;13760;52.588;13.406;2023-03-25T01:11:46;8.70;99.90
25963;DHT22;13760;52.588;13.406;2023-03-25T01:14:18;8.60;99.90
25963;DHT22;13760;52.588;13.406;2023-03-25T01:16:44;8.60;99.90
25963;DHT22;13760;52.588;13.406;2023-03-25T01:19:11;8.50;99.90
25963;DHT22;13760;52.588;13.406;2023-03-25T01:21:37;8.50;99.90
25963;DHT22;13760;52.588;13.406;2023-03-25T01:24:03;8.60;99.90
25963;DHT22;13760;52.588;13.406;2023-03-25T01:26:29;8.50;99.90
25963;DHT22;13760;52.588;13.406;2023-03-25T01:28:55;8.50;99.90
25963;DHT22;13760;52.588;13.406;2023-03-25T01:31:21;8.50;99.90
25963;DHT22;13760;52.588;13.406;2023-03-25T01:33:48;8.60;99.90
25963;DHT22;13760;52.588;13.406;2023-03-25T01:36:14;8.60;99.90
25963;DHT22;13760;52.588;13.406;2023-03-25T01:38:40;8.60;99.90
25963;DHT22;13760;52.588;13.406;2023-03-25T01:41:08;8.60;99.90
25963;DHT22;13760;52.588;13.406;2023-03-25T01:43:34;8.50;99.90
25963;DHT22;13760;52.588;13.406;2023-03-25T01:46:00;8.50;99.90
25963;DHT22;13760;52.588;13.406;2023-03-25T01:48:35;8.50;99.90
25963;DHT22;13760;52.588;13.406;2023-03-25T01:51:16;8.40;99.90
25963;DHT22;13760;52.588;13.406;2023-03-25T01:53:42;8.40;99.90
25963;DHT22;13760;52.588;13.406;2023-03-25T01:56:10;8.40;99.90
25963;DHT22;13760;52.588;13.406;2023-03-25T01:58:38;8.40;99.90
25963;DHT22;13760;52.588;13.406;2023-03-25T02:01:05;8.40;99.90
25963;DHT22;13760;52.588;13.406;2023-03-25T02:03:31;8.40;99.90
25963;DHT22;13760;52.588;13.406;2023-03-25T02:06:09;8.40;99.90
25963;DHT22;13760;52.588;13.406;2023-03-25T02:08:38;8.40;99.90
25963;DHT22;13760;52.588;13.406;2023-03-25T02:11:08;8.50;99.90
25963;DHT22;13760;52.588;13.406;2023-03-25T02:13:36;8.50;99.90
25963;DHT22;13760;52.588;13.406;2023-03-25T02:16:27;8.50;99.90
25963;DHT22;13760;52.588;13.406;2023-03-25T02:24:58;8.60;99.90
25963;DHT22;13760;52.588;13.406;2023-03-25T02:30:18;8.60;99.90
25963;DHT22;13760;52.588;13.406;2023-03-25T02:33:03;8.60;99.90
25963;DHT22;13760;52.588;13.406;2023-03-25T02:38:33;8.70;99.90
25963;DHT22;13760;52.588;13.406;2023-03-25T02:41:12;8.70;99.90
25963;DHT22;13760;52.588;13.406;2023-03-25T02:46:33;8.70;99.90
25963;DHT22;13760;52.588;13.406;2023-03-25T02:49:29;8.70;99.90
25963;DHT22;13760;52.588;13.406;2023-03-25T02:52:01;8.80;99.90
25963;DHT22;13760;52.588;13.406;2023-03-25T02:54:31;8.70;99.90
25963;DHT22;13760;52.588;13.406;2023-03-25T02:56:59;8.80;99.90
25963;DHT22;13760;52.588;13.406;2023-03-25T02:59:26;8.70;99.90
25963;DHT22;13760;52.588;13.406;2023-03-25T03:01:55;8.70;99.90
25963;DHT22;13760;52.588;13.406;2023-03-25T03:04:23;8.80;99.90
25963;DHT22;13760;52.588;13.406;2023-03-25T03:06:50;8.80;99.90
25963;DHT22;13760;52.588;13.406;2023-03-25T03:09:21;8.80;99.90
25963;DHT22;13760;52.588;13.406;2023-03-25T03:14:33;8.80;99.90
25963;DHT22;13760;52.588;13.406;2023-03-25T03:17:23;8.80;99.90
25963;DHT22;13760;52.588;13.406;2023-03-25T03:19:55;8.90;99.90
25963;DHT22;13760;52.588;13.406;2023-03-25T03:27:42;8.90;99.90
25963;DHT22;13760;52.588;13.406;2023-03-25T03:30:12;9.00;99.90
25963;DHT22;13760;52.588;13.406;2023-03-25T03:37:59;8.80;99.90
25963;DHT22;13760;52.588;13.406;2023-03-25T03:40:27;8.80;99.90
25963;DHT22;13760;52.588;13.406;2023-03-25T03:42:57;8.80;99.90
25963;DHT22;13760;52.588;13.406;2023-03-25T03:45:34;8.70;99.90
25963;DHT22;13760;52.588;13.406;2023-03-25T03:48:06;8.70;99.90
25963;DHT22;13760;52.588;13.406;2023-03-25T03:50:50;8.70;99.90
25963;DHT22;13760;52.588;13.406;2023-03-25T03:53:34;8.70;99.90
25963;DHT22;13760;52.588;13.406;2023-03-25T03:56:09;8.60;99.90
25963;DHT22;13760;52.588;13.406;2023-03-25T03:58:39;8.60;99.90
25963;DHT22;13760;52.588;13.406;2023-03-25T04:01:21;8.50;99.90
25963;DHT22;13760;52.588;13.406;2023-03-25T04:03:57;8.50;99.90
25963;DHT22;13760;52.588;13.406;2023-03-25T04:07:19;8.40;99.90
25963;DHT22;13760;52.588;13.406;2023-03-25T04:09:41;8.40;99.90
25963;DHT22;13760;52.588;13.406;2023-03-25T04:12:36;8.40;99.90
25963;DHT22;13760;52.588;13.406;2023-03-25T04:15:04;8.40;99.90
25963;DHT22;13760;52.588;13.406;2023-03-25T04:17:31;8.30;99.90
25963;DHT22;13760;52.588;13.406;2023-03-25T04:20:00;8.30;99.90
25963;DHT22;13760;52.588;13.406;2023-03-25T04:22:33;8.30;99.90
25963;DHT22;13760;52.588;13.406;2023-03-25T04:25:05;8.30;99.90
25963;DHT22;13760;52.588;13.406;2023-03-25T04:27:31;8.30;99.90
25963;DHT22;13760;52.588;13.406;2023-03-25T04:29:57;8.30;99.90
25963;DHT22;13760;52.588;13.406;2023-03-25T04:32:26;8.30;99.90
25963;DHT22;13760;52.588;13.406;2023-03-25T04:34:53;8.30;99.90
25963;DHT22;13760;52.588;13.406;2023-03-25T04:37:25;8.30;99.90
25963;DHT22;13760;52.588;13.406;2023-03-25T04:39:52;8.30;99.90
25963;DHT22;13760;52.588;13.406;2023-03-25T04:42:20;8.30;99.90
25963;DHT22;13760;52.588;13.406;2023-03-25T04:44:50;8.30;99.90
25963;DHT22;13760;52.588;13.406;2023-03-25T04:47:23;8.30;99.90
25963;DHT22;13760;52.588;13.406;2023-03-25T04:49:49;8.20;99.90
25963;DHT22;13760;52.588;13.406;2023-03-25T04:52:15;8.20;99.90
25963;DHT22;13760;52.588;13.406;2023-03-25T04:54:41;8.20;99.90
25963;DHT22;13760;52.588;13.406;2023-03-25T04:57:09;8.10;99.90
25963;DHT22;13760;52.588;13.406;2023-03-25T04:59:35;8.10;99.90
25963;DHT22;13760;52.588;13.406;2023-03-25T05:02:01;8.00;99.90
25963;DHT22;13760;52.588;13.406;2023-03-25T05:04:27;8.00;99.90
25963;DHT22;13760;52.588;13.406;2023-03-25T05:06:53;8.00;99.90
25963;DHT22;13760;52.588;13.406;2023-03-25T05:09:21;8.00;99.90
25963;DHT22;13760;52.588;13.406;2023-03-25T05:11:47;8.00;99.90
25963;DHT22;13760;52.588;13.406;2023-03-25T05:14:15;8.00;99.90
25963;DHT22;13760;52.588;13.406;2023-03-25T05:16:41;8.00;99.90
25963;DHT22;13760;52.588;13.406;2023-03-25T05:19:08;8.00;99.90
25963;DHT22;13760;52.588;13.406;2023-03-25T05:21:35;8.00;99.90
25963;DHT22;13760;52.588;13.406;2023-03-25T05:24:01;8.00;99.90
25963;DHT22;13760;52.588;13.406;2023-03-25T05:26:27;8.00;99.90
25963;DHT22;13760;52.588;13.406;2023-03-25T05:29:07;8.00;99.90
25963;DHT22;13760;52.588;13.406;2023-03-25T05:31:33;8.00;99.90
25963;DHT22;13760;52.588;13.406;2023-03-25T05:33:58;8.00;99.90
25963;DHT22;13760;52.588;13.406;2023-03-25T05:36:24;8.00;99.90
25963;DHT22;13760;52.588;13.406;2023-03-25T05:38:52;8.00;99.90
25963;DHT22;13760;52.588;13.406;2023-03-25T05:41:19;8.10;99.90
25963;DHT22;13760;52.588;13.406;2023-03-25T05:43:45;8.10;99.90
25963;DHT22;13760;52.588;13.406;2023-03-25T05:46:20;8.10;99.90
25963;DHT22;13760;52.588;13.406;2023-03-25T05:48:49;8.20;99.90
25963;DHT22;13760;52.588;13.406;2023-03-25T05:51:17;8.20;99.90
25963;DHT22;13760;52.588;13.406;2023-03-25T05:53:47;8.30;99.90
25963;DHT22;13760;52.588;13.406;2023-03-25T05:56:31;8.30;99.90
25963;DHT22;13760;52.588;13.406;2023-03-25T05:58:57;8.30;99.90
25963;DHT22;13760;52.588;13.406;2023-03-25T06:01:23;8.40;99.90
25963;DHT22;13760;52.588;13.406;2023-03-25T06:03:49;8.40;99.90
25963;DHT22;13760;52.588;13.406;2023-03-25T06:06:15;8.40;99.90
25963;DHT22;13760;52.588;13.406;2023-03-25T06:08:46;8.40;99.90
25963;DHT22;13760;52.588;13.406;2023-03-25T06:11:14;8.40;99.90
25963;DHT22;13760;52.588;13.406;2023-03-25T06:13:41;8.40;99.90
25963;DHT22;13760;52.588;13.406;2023-03-25T06:16:17;8.40;99.90
25963;DHT22;13760;52.588;13.406;2023-03-25T06:18:47;8.50;99.90
25963;DHT22;13760;52.588;13.406;2023-03-25T06:21:21;8.50;99.90
25963;DHT22;13760;52.588;13.406;2023-03-25T06:23:47;8.50;99.90
25963;DHT22;13760;52.588;13.406;2023-03-25T06:26:15;8.50;99.90
25963;DHT22;13760;52.588;13.406;2023-03-25T06:28:41;8.50;99.90
25963;DHT22;13760;52.588;13.406;2023-03-25T06:31:14;8.60;99.90
25963;DHT22;13760;52.588;13.406;2023-03-25T06:33:46;8.50;99.90
25963;DHT22;13760;52.588;13.406;2023-03-25T06:36:14;8.60;99.90
25963;DHT22;13760;52.588;13.406;2023-03-25T06:38:44;8.50;99.90
25963;DHT22;13760;52.588;13.406;2023-03-25T06:41:10;8.50;99.90
25963;DHT22;13760;52.588;13.406;2023-03-25T06:43:38;8.60;99.90
25963;DHT22;13760;52.588;13.406;2023-03-25T06:46:04;8.70;99.90
25963;DHT22;13760;52.588;13.406;2023-03-25T06:48:30;8.70;99.90
25963;DHT22;13760;52.588;13.406;2023-03-25T06:50:55;8.80;99.90
25963;DHT22;13760;52.588;13.406;2023-03-25T06:53:21;8.80;99.90
25963;DHT22;13760;52.588;13.406;2023-03-25T06:55:47;8.90;99.90
25963;DHT22;13760;52.588;13.406;2023-03-25T06:58:12;8.80;99.90
25963;DHT22;13760;52.588;13.406;2023-03-25T07:00:38;8.90;99.90
25963;DHT22;13760;52.588;13.406;2023-03-25T07:03:04;8.80;99.90
25963;DHT22;13760;52.588;13.406;2023-03-25T07:05:29;8.80;99.90
25963;DHT22;13760;52.588;13.406;2023-03-25T07:07:56;8.80;99.90
25963;DHT22;13760;52.588;13.406;2023-03-25T07:10:22;8.80;99.90
25963;DHT22;13760;52.588;13.406;2023-03-25T07:12:47;8.80;99.90
25963;DHT22;13760;52.588;13.406;2023-03-25T07:15:13;8.90;99.90
25963;DHT22;13760;52.588;13.406;2023-03-25T07:17:39;8.90;99.90
25963;DHT22;13760;52.588;13.406;2023-03-25T07:20:05;9.00;99.90
25963;DHT22;13760;52.588;13.406;2023-03-25T07:22:31;9.10;99.90
25963;DHT22;13760;52.588;13.406;2023-03-25T07:24:57;9.20;99.90
25963;DHT22;13760;52.588;13.406;2023-03-25T07:27:23;9.30;99.90
25963;DHT22;13760;52.588;13.406;2023-03-25T07:29:50;9.40;99.90
25963;DHT22;13760;52.588;13.406;2023-03-25T07:32:15;9.50;99.90
25963;DHT22;13760;52.588;13.406;2023-03-25T07:34:41;9.50;99.90
25963;DHT22;13760;52.588;13.406;2023-03-25T07:37:07;9.50;99.90
25963;DHT22;13760;52.588;13.406;2023-03-25T07:39:41;9.70;99.90
25963;DHT22;13760;52.588;13.406;2023-03-25T07:42:07;9.80;99.90
25963;DHT22;13760;52.588;13.406;2023-03-25T07:44:32;9.90;99.90
25963;DHT22;13760;52.588;13.406;2023-03-25T07:46:58;10.00;99.90
25963;DHT22;13760;52.588;13.406;2023-03-25T07:49:24;10.20;99.90
25963;DHT22;13760;52.588;13.406;2023-03-25T07:51:52;10.30;99.90
25963;DHT22;13760;52.588;13.406;2023-03-25T07:54:46;10.50;99.90
25963;DHT22;13760;52.588;13.406;2023-03-25T08:00:39;10.90;99.90
25963;DHT22;13760;52.588;13.406;2023-03-25T08:03:05;11.00;99.90
25963;DHT22;13760;52.588;13.406;2023-03-25T08:05:31;11.20;99.90
25963;DHT22;13760;52.588;13.406;2023-03-25T08:07:57;11.20;99.90
25963;DHT22;13760;52.588;13.406;2023-03-25T08:10:25;11.30;99.90
25963;DHT22;13760;52.588;13.406;2023-03-25T08:12:51;11.40;99.90
25963;DHT22;13760;52.588;13.406;2023-03-25T08:15:18;11.50;99.90
25963;DHT22;13760;52.588;13.406;2023-03-25T08:17:51;11.40;99.90
25963;DHT22;13760;52.588;13.406;2023-03-25T08:20:18;11.20;99.90
25963;DHT22;13760;52.588;13.406;2023-03-25T08:22:45;11.10;99.90
25963;DHT22;13760;52.588;13.406;2023-03-25T08:25:14;11.00;99.90
25963;DHT22;13760;52.588;13.406;2023-03-25T08:27:40;10.90;99.90
25963;DHT22;13760;52.588;13.406;2023-03-25T08:30:06;11.00;99.90
25963;DHT22;13760;52.588;13.406;2023-03-25T08:32:35;11.00;99.90
25963;DHT22;13760;52.588;13.406;2023-03-25T08:35:03;10.90;99.90
25963;DHT22;13760;52.588;13.406;2023-03-25T08:37:32;10.80;99.90
25963;DHT22;13760;52.588;13.406;2023-03-25T08:40:06;10.80;99.90
25963;DHT22;13760;52.588;13.406;2023-03-25T08:42:33;10.70;99.90
25963;DHT22;13760;52.588;13.406;2023-03-25T08:44:59;10.70;99.90
25963;DHT22;13760;52.588;13.406;2023-03-25T08:47:25;10.60;99.90
25963;DHT22;13760;52.588;13.406;2023-03-25T08:49:51;10.40;99.90
25963;DHT22;13760;52.588;13.406;2023-03-25T08:52:16;10.30;99.90
25963;DHT22;13760;52.588;13.406;2023-03-25T08:54:57;10.20;99.90
25963;DHT22;13760;52.588;13.406;2023-03-25T08:57:23;10.10;99.90
25963;DHT22;13760;52.588;13.406;2023-03-25T08:59:49;10.30;99.90
25963;DHT22;13760;52.588;13.406;2023-03-25T09:02:14;10.40;99.90
25963;DHT22;13760;52.588;13.406;2023-03-25T09:04:40;10.40;99.90
25963;DHT22;13760;52.588;13.406;2023-03-25T09:07:06;10.40;99.90
25963;DHT22;13760;52.588;13.406;2023-03-25T09:09:36;10.40;99.90
25963;DHT22;13760;52.588;13.406;2023-03-25T09:12:03;10.30;99.90
25963;DHT22;13760;52.588;13.406;2023-03-25T09:14:29;10.20;99.90
25963;DHT22;13760;52.588;13.406;2023-03-25T09:16:55;10.30;99.90
25963;DHT22;13760;52.588;13.406;2023-03-25T09:19:21;10.40;99.90
25963;DHT22;13760;52.588;13.406;2023-03-25T09:21:47;10.40;99.90
25963;DHT22;13760;52.588;13.406;2023-03-25T09:24:12;10.40;99.90
25963;DHT22;13760;52.588;13.406;2023-03-25T09:26:38;10.30;99.90
25963;DHT22;13760;52.588;13.406;2023-03-25T09:29:05;10.10;99.90
25963;DHT22;13760;52.588;13.406;2023-03-25T09:31:52;10.00;99.90
25963;DHT22;13760;52.588;13.406;2023-03-25T09:34:18;10.10;99.90
25963;DHT22;13760;52.588;13.406;2023-03-25T09:36:43;10.10;99.90
25963;DHT22;13760;52.588;13.406;2023-03-25T09:39:31;10.00;99.90
25963;DHT22;13760;52.588;13.406;2023-03-25T09:47:24;9.90;99.90
25963;DHT22;13760;52.588;13.406;2023-03-25T09:49:54;9.80;99.90
25963;DHT22;13760;52.588;13.406;2023-03-25T09:55:19;9.70;99.90
25963;DHT22;13760;52.588;13.406;2023-03-25T09:57:53;10.00;99.90
25963;DHT22;13760;52.588;13.406;2023-03-25T10:00:24;10.30;99.90
25963;DHT22;13760;52.588;13.406;2023-03-25T10:13:59;10.90;99.90
25963;DHT22;13760;52.588;13.406;2023-03-25T10:22:17;10.70;99.90
25963;DHT22;13760;52.588;13.406;2023-03-25T10:24:55;10.70;99.90
25963;DHT22;13760;52.588;13.406;2023-03-25T10:27:39;10.70;99.90
25963;DHT22;13760;52.588;13.406;2023-03-25T10:30:32;11.00;99.90
25963;DHT22;13760;52.588;13.406;2023-03-25T10:33:02;11.40;99.90
25963;DHT22;13760;52.588;13.406;2023-03-25T10:35:38;11.40;99.90
25963;DHT22;13760;52.588;13.406;2023-03-25T10:38:19;11.50;99.90
25963;DHT22;13760;52.588;13.406;2023-03-25T10:41:00;11.80;99.90
25963;DHT22;13760;52.588;13.406;2023-03-25T10:43:29;12.00;99.90
25963;DHT22;13760;52.588;13.406;2023-03-25T10:48:49;11.80;99.90
25963;DHT22;13760;52.588;13.406;2023-03-25T10:51:19;11.60;99.90
25963;DHT22;13760;52.588;13.406;2023-03-25T10:53:50;11.60;99.90
25963;DHT22;13760;52.588;13.406;2023-03-25T10:56:47;11.60;99.90
25963;DHT22;13760;52.588;13.406;2023-03-25T10:59:30;11.90;99.90
25963;DHT22;13760;52.588;13.406;2023-03-25T11:01:58;12.00;99.90
25963;DHT22;13760;52.588;13.406;2023-03-25T11:04:44;12.10;99.90
25963;DHT22;13760;52.588;13.406;2023-03-25T11:07:20;12.10;99.90
25963;DHT22;13760;52.588;13.406;2023-03-25T11:09:46;12.00;99.90
25963;DHT22;13760;52.588;13.406;2023-03-25T11:12:17;11.90;99.90
25963;DHT22;13760;52.588;13.406;2023-03-25T11:14:44;11.90;99.90
25963;DHT22;13760;52.588;13.406;2023-03-25T11:17:14;11.80;99.90
25963;DHT22;13760;52.588;13.406;2023-03-25T11:22:29;11.60;99.90
25963;DHT22;13760;52.588;13.406;2023-03-25T11:25:18;11.60;99.90
25963;DHT22;13760;52.588;13.406;2023-03-25T11:27:50;11.50;99.90
25963;DHT22;13760;52.588;13.406;2023-03-25T11:30:19;11.30;99.90
25963;DHT22;13760;52.588;13.406;2023-03-25T11:33:02;11.30;99.90
25963;DHT22;13760;52.588;13.406;2023-03-25T11:35:31;10.90;99.90
25963;DHT22;13760;52.588;13.406;2023-03-25T11:38:00;10.50;99.90
25963;DHT22;13760;52.588;13.406;2023-03-25T11:40:28;10.00;99.90
25963;DHT22;13760;52.588;13.406;2023-03-25T11:42:59;9.70;99.90
25963;DHT22;13760;52.588;13.406;2023-03-25T11:45:35;9.50;99.90
25963;DHT22;13760;52.588;13.406;2023-03-25T11:48:20;9.60;99.90
25963;DHT22;13760;52.588;13.406;2023-03-25T11:50:54;9.90;99.90
25963;DHT22;13760;52.588;13.406;2023-03-25T11:53:25;10.20;99.90
25963;DHT22;13760;52.588;13.406;2023-03-25T11:55:59;10.40;99.90
25963;DHT22;13760;52.588;13.406;2023-03-25T11:58:30;10.50;99.90
25963;DHT22;13760;52.588;13.406;2023-03-25T12:01:04;10.80;99.90
25963;DHT22;13760;52.588;13.406;2023-03-25T12:03:36;11.10;99.90
25963;DHT22;13760;52.588;13.406;2023-03-25T12:06:15;11.30;99.90
25963;DHT22;13760;52.588;13.406;2023-03-25T12:11:17;11.40;99.90
25963;DHT22;13760;52.588;13.406;2023-03-25T12:14:11;11.40;99.90
25963;DHT22;13760;52.588;13.406;2023-03-25T12:29:15;10.90;99.90
25963;DHT22;13760;52.588;13.406;2023-03-25T13:07:08;10.90;99.90
25963;DHT22;13760;52.588;13.406;2023-03-25T13:10:04;10.80;99.90
25963;DHT22;13760;52.588;13.406;2023-03-25T13:12:39;10.80;99.90
25963;DHT22;13760;52.588;13.406;2023-03-25T13:17:58;10.60;99.90
25963;DHT22;13760;52.588;13.406;2023-03-25T13:20:28;10.60;99.90
25963;DHT22;13760;52.588;13.406;2023-03-25T13:22:58;10.50;99.90
25963;DHT22;13760;52.588;13.406;2023-03-25T13:25:30;10.30;99.90
25963;DHT22;13760;52.588;13.406;2023-03-25T13:28:02;10.30;99.90
25963;DHT22;13760;52.588;13.406;2023-03-25T13:30:47;10.40;99.90
25963;DHT22;13760;52.588;13.406;2023-03-25T13:33:27;10.40;99.90
25963;DHT22;13760;52.588;13.406;2023-03-25T13:36:04;10.30;99.90
25963;DHT22;13760;52.588;13.406;2023-03-25T13:38:37;10.20;99.90
25963;DHT22;13760;52.588;13.406;2023-03-25T13:41:15;10.10;99.90
25963;DHT22;13760;52.588;13.406;2023-03-25T13:46:30;9.90;99.90
25963;DHT22;13760;52.588;13.406;2023-03-25T13:51:46;9.90;99.90
25963;DHT22;13760;52.588;13.406;2023-03-25T13:54:37;9.90;99.90
25963;DHT22;13760;52.588;13.406;2023-03-25T13:57:23;10.00;99.90
25963;DHT22;13760;52.588;13.406;2023-03-25T14:00:17;10.00;99.90
25963;DHT22;13760;52.588;13.406;2023-03-25T14:05:55;10.20;99.90
25963;DHT22;13760;52.588;13.406;2023-03-25T14:11:37;10.40;99.90
25963;DHT22;13760;52.588;13.406;2023-03-25T14:14:15;10.40;99.90
25963;DHT22;13760;52.588;13.406;2023-03-25T14:16:44;10.50;99.90
25963;DHT22;13760;52.588;13.406;2023-03-25T14:19:14;10.40;99.90
25963;DHT22;13760;52.588;13.406;2023-03-25T14:21:46;10.40;99.90
25963;DHT22;13760;52.588;13.406;2023-03-25T14:24:14;10.30;99.90
25963;DHT22;13760;52.588;13.406;2023-03-25T14:26:49;10.20;99.90
25963;DHT22;13760;52.588;13.406;2023-03-25T14:29:38;10.20;99.90
25963;DHT22;13760;52.588;13.406;2023-03-25T14:34:36;10.20;99.90
25963;DHT22;13760;52.588;13.406;2023-03-25T14:42:24;10.50;99.90
25963;DHT22;13760;52.588;13.406;2023-03-25T14:44:52;10.70;99.90
25963;DHT22;13760;52.588;13.406;2023-03-25T14:50:00;10.90;99.90
25963;DHT22;13760;52.588;13.406;2023-03-25T14:54:55;10.90;99.90
25963;DHT22;13760;52.588;13.406;2023-03-25T14:57:27;10.90;99.90
25963;DHT22;13760;52.588;13.406;2023-03-25T14:59:57;10.90;99.90
25963;DHT22;13760;52.588;13.406;2023-03-25T15:02:31;11.10;99.90
25963;DHT22;13760;52.588;13.406;2023-03-25T15:05:03;11.20;99.90
25963;DHT22;13760;52.588;13.406;2023-03-25T15:07:43;11.30;99.90
25963;DHT22;13760;52.588;13.406;2023-03-25T15:10:29;11.50;99.90
25963;DHT22;13760;52.588;13.406;2023-03-25T15:13:08;11.60;99.90
25963;DHT22;13760;52.588;13.406;2023-03-25T15:18:09;11.50;99.90
25963;DHT22;13760;52.588;13.406;2023-03-25T15:20:35;11.60;99.90
25963;DHT22;13760;52.588;13.406;2023-03-25T15:25:43;11.50;99.90
25963;DHT22;13760;52.588;13.406;2023-03-25T15:42:48;11.40;99.90
25963;DHT22;13760;52.588;13.406;2023-03-25T15:56:54;11.30;99.90
25963;DHT22;13760;52.588;13.406;2023-03-25T15:59:44;11.30;99.90
25963;DHT22;13760;52.588;13.406;2023-03-25T16:02:24;11.20;99.90
25963;DHT22;13760;52.588;13.406;2023-03-25T16:04:52;11.10;99.90
25963;DHT22;13760;52.588;13.406;2023-03-25T16:07:22;11.10;99.90
25963;DHT22;13760;52.588;13.406;2023-03-25T16:09:50;11.00;99.90
25963;DHT22;13760;52.588;13.406;2023-03-25T16:12:23;11.00;99.90
25963;DHT22;13760;52.588;13.406;2023-03-25T16:14:51;11.00;99.90
25963;DHT22;13760;52.588;13.406;2023-03-25T16:17:19;10.90;99.90
25963;DHT22;13760;52.588;13.406;2023-03-25T16:19:52;11.00;99.90
25963;DHT22;13760;52.588;13.406;2023-03-25T16:22:27;10.90;99.90
25963;DHT22;13760;52.588;13.406;2023-03-25T16:24:56;10.80;99.90
25963;DHT22;13760;52.588;13.406;2023-03-25T16:27:34;10.50;99.90
25963;DHT22;13760;52.588;13.406;2023-03-25T16:30:01;10.10;99.90
25963;DHT22;13760;52.588;13.406;2023-03-25T16:32:32;9.90;99.90
25963;DHT22;13760;52.588;13.406;2023-03-25T16:34:58;9.70;99.90
25963;DHT22;13760;52.588;13.406;2023-03-25T16:37:26;9.60;99.90
25963;DHT22;13760;52.588;13.406;2023-03-25T16:39:54;9.50;99.90
25963;DHT22;13760;52.588;13.406;2023-03-25T16:42:25;9.50;99.90
25963;DHT22;13760;52.588;13.406;2023-03-25T16:44:52;9.40;99.90
25963;DHT22;13760;52.588;13.406;2023-03-25T16:47:18;9.30;99.90
25963;DHT22;13760;52.588;13.406;2023-03-25T16:49:46;9.30;99.90
25963;DHT22;13760;52.588;13.406;2023-03-25T16:52:16;9.30;99.90
25963;DHT22;13760;52.588;13.406;2023-03-25T16:54:46;9.20;99.90
25963;DHT22;13760;52.588;13.406;2023-03-25T16:57:37;9.20;99.90
25963;DHT22;13760;52.588;13.406;2023-03-25T17:00:16;9.20;99.90
25963;DHT22;13760;52.588;13.406;2023-03-25T17:02:45;9.20;99.90
25963;DHT22;13760;52.588;13.406;2023-03-25T17:05:19;9.20;99.90
25963;DHT22;13760;52.588;13.406;2023-03-25T17:07:47;9.20;99.90
25963;DHT22;13760;52.588;13.406;2023-03-25T17:10:21;9.20;99.90
25963;DHT22;13760;52.588;13.406;2023-03-25T17:12:53;9.20;99.90
25963;DHT22;13760;52.588;13.406;2023-03-25T17:15:20;9.20;99.90
25963;DHT22;13760;52.588;13.406;2023-03-25T17:17:50;9.10;99.90
25963;DHT22;13760;52.588;13.406;2023-03-25T17:20:25;9.10;99.90
25963;DHT22;13760;52.588;13.406;2023-03-25T17:26:05;9.10;99.90
25963;DHT22;13760;52.588;13.406;2023-03-25T17:28:41;9.10;99.90
25963;DHT22;13760;52.588;13.406;2023-03-25T17:34:10;9.00;99.90
25963;DHT22;13760;52.588;13.406;2023-03-25T17:36:38;9.00;99.90
25963;DHT22;13760;52.588;13.406;2023-03-25T17:39:17;9.00;99.90
25963;DHT22;13760;52.588;13.406;2023-03-25T17:41:43;8.90;99.90
25963;DHT22;13760;52.588;13.406;2023-03-25T17:44:15;8.90;99.90
25963;DHT22;13760;52.588;13.406;2023-03-25T17:46:52;8.90;99.90
25963;DHT22;13760;52.588;13.406;2023-03-25T17:49:20;8.80;99.90
25963;DHT22;13760;52.588;13.406;2023-03-25T17:51:46;8.80;99.90
25963;DHT22;13760;52.588;13.406;2023-03-25T17:54:12;8.80;99.90
25963;DHT22;13760;52.588;13.406;2023-03-25T17:56:39;8.80;99.90
25963;DHT22;13760;52.588;13.406;2023-03-25T17:59:16;8.80;99.90
25963;DHT22;13760;52.588;13.406;2023-03-25T18:01:43;8.80;99.90
25963;DHT22;13760;52.588;13.406;2023-03-25T18:04:10;8.80;99.90
25963;DHT22;13760;52.588;13.406;2023-03-25T18:06:36;8.70;99.90
25963;DHT22;13760;52.588;13.406;2023-03-25T18:09:03;8.70;99.90
25963;DHT22;13760;52.588;13.406;2023-03-25T18:11:32;8.70;99.90
25963;DHT22;13760;52.588;13.406;2023-03-25T18:13:57;8.60;99.90
25963;DHT22;13760;52.588;13.406;2023-03-25T18:16:23;8.50;99.90
25963;DHT22;13760;52.588;13.406;2023-03-25T18:18:48;8.50;99.90
25963;DHT22;13760;52.588;13.406;2023-03-25T18:21:16;8.50;99.90
25963;DHT22;13760;52.588;13.406;2023-03-25T18:23:42;8.40;99.90
25963;DHT22;13760;52.588;13.406;2023-03-25T18:26:31;8.40;99.90
25963;DHT22;13760;52.588;13.406;2023-03-25T18:28:57;8.40;99.90
25963;DHT22;13760;52.588;13.406;2023-03-25T18:31:23;8.40;99.90
25963;DHT22;13760;52.588;13.406;2023-03-25T18:33:49;8.50;99.90
25963;DHT22;13760;52.588;13.406;2023-03-25T18:36:16;8.50;99.90
25963;DHT22;13760;52.588;13.406;2023-03-25T18:38:44;8.60;99.90
25963;DHT22;13760;52.588;13.406;2023-03-25T18:41:11;8.60;99.90
25963;DHT22;13760;52.588;13.406;2023-03-25T18:43:39;8.60;99.90